sensor_id;sensor_type;location;lat;lon;timestamp;temperature;humidity
19090;DHT22;9677;50.656;13.064;2023-03-21T00:01:53;13.00;56.10
19090;DHT22;9677;50.656;13.064;2023-03-21T00:04:22;12.90;56.10
19090;DHT22;9677;50.656;13.064;2023-03-21T00:06:52;13.20;56.30
19090;DHT22;9677;50.656;13.064;2023-03-21T00:09:21;12.90;56.10
19090;DHT22;9677;50.656;13.064;2023-03-21T00:11:50;12.90;56.10
19090;DHT22;9677;50.656;13.064;2023-03-21T00:14:18;12.90;56.10
19090;DHT22;9677;50.656;13.064;2023-03-21T00:16:47;12.90;56.20
19090;DHT22;9677;50.656;13.064;2023-03-21T00:19:18;13.40;56.40
19090;DHT22;9677;50.656;13.064;2023-03-21T00:21:47;12.90;56.10
19090;DHT22;9677;50.656;13.064;2023-03-21T00:24:34;12.90;56.10
19090;DHT22;9677;50.656;13.064;2023-03-21T00:27:03;12.90;56.20
19090;DHT22;9677;50.656;13.064;2023-03-21T00:29:54;13.20;56.30
19090;DHT22;9677;50.656;13.064;2023-03-21T00:32:22;13.00;56.20
19090;DHT22;9677;50.656;13.064;2023-03-21T00:34:52;12.90;56.10
19090;DHT22;9677;50.656;13.064;2023-03-21T00:37:41;12.90;56.00
19090;DHT22;9677;50.656;13.064;2023-03-21T00:40:11;12.90;56.00
19090;DHT22;9677;50.656;13.064;2023-03-21T00:42:52;12.90;56.00
19090;DHT22;9677;50.656;13.064;2023-03-21T00:45:20;13.00;56.10
19090;DHT22;9677;50.656;13.064;2023-03-21T00:47:49;12.80;56.00
19090;DHT22;9677;50.656;13.064;2023-03-21T00:50:19;12.80;56.00
19090;DHT22;9677;50.656;13.064;2023-03-21T00:52:47;12.80;56.00
19090;DHT22;9677;50.656;13.064;2023-03-21T00:55:17;12.80;56.00
19090;DHT22;9677;50.656;13.064;2023-03-21T00:57:46;12.80;56.10
19090;DHT22;9677;50.656;13.064;2023-03-21T01:00:25;12.80;56.00
19090;DHT22;9677;50.656;13.064;2023-03-21T01:02:55;12.80;56.00
19090;DHT22;9677;50.656;13.064;2023-03-21T01:05:40;12.80;56.10
19090;DHT22;9677;50.656;13.064;2023-03-21T01:08:27;12.80;56.20
19090;DHT22;9677;50.656;13.064;2023-03-21T01:11:10;12.80;56.10
19090;DHT22;9677;50.656;13.064;2023-03-21T01:13:40;12.80;56.20
19090;DHT22;9677;50.656;13.064;2023-03-21T01:16:22;12.80;56.10
19090;DHT22;9677;50.656;13.064;2023-03-21T01:18:51;12.70;56.00
19090;DHT22;9677;50.656;13.064;2023-03-21T01:21:21;12.90;56.00
19090;DHT22;9677;50.656;13.064;2023-03-21T01:23:50;12.70;55.90
19090;DHT22;9677;50.656;13.064;2023-03-21T01:26:19;12.70;55.90
19090;DHT22;9677;50.656;13.064;2023-03-21T01:28:48;12.70;55.90
19090;DHT22;9677;50.656;13.064;2023-03-21T01:31:17;12.60;55.90
19090;DHT22;9677;50.656;13.064;2023-03-21T01:33:46;12.60;55.90
19090;DHT22;9677;50.656;13.064;2023-03-21T01:36:18;12.60;55.90
19090;DHT22;9677;50.656;13.064;2023-03-21T01:38:54;12.60;55.90
19090;DHT22;9677;50.656;13.064;2023-03-21T01:41:25;12.60;55.90
19090;DHT22;9677;50.656;13.064;2023-03-21T01:44:16;12.60;55.90
19090;DHT22;9677;50.656;13.064;2023-03-21T01:46:48;12.50;55.90
19090;DHT22;9677;50.656;13.064;2023-03-21T01:49:45;12.50;56.50
19090;DHT22;9677;50.656;13.064;2023-03-21T01:52:24;12.50;55.80
19090;DHT22;9677;50.656;13.064;2023-03-21T01:55:13;12.60;55.80
19090;DHT22;9677;50.656;13.064;2023-03-21T01:57:52;12.50;55.70
19090;DHT22;9677;50.656;13.064;2023-03-21T02:00:53;12.40;55.70
19090;DHT22;9677;50.656;13.064;2023-03-21T02:03:38;12.40;55.70
19090;DHT22;9677;50.656;13.064;2023-03-21T02:06:47;12.40;55.70
19090;DHT22;9677;50.656;13.064;2023-03-21T02:09:36;12.40;55.70
19090;DHT22;9677;50.656;13.064;2023-03-21T02:12:11;12.30;55.70
19090;DHT22;9677;50.656;13.064;2023-03-21T02:14:43;12.30;55.70
19090;DHT22;9677;50.656;13.064;2023-03-21T02:17:32;12.30;55.70
19090;DHT22;9677;50.656;13.064;2023-03-21T02:20:40;12.30;55.60
19090;DHT22;9677;50.656;13.064;2023-03-21T02:23:40;12.20;55.50
19090;DHT22;9677;50.656;13.064;2023-03-21T02:26:38;12.20;55.50
19090;DHT22;9677;50.656;13.064;2023-03-21T02:29:43;12.80;55.80
19090;DHT22;9677;50.656;13.064;2023-03-21T02:33:00;12.20;55.60
19090;DHT22;9677;50.656;13.064;2023-03-21T02:35:53;12.20;55.60
19090;DHT22;9677;50.656;13.064;2023-03-21T02:38:46;12.10;55.60
19090;DHT22;9677;50.656;13.064;2023-03-21T02:41:27;12.10;55.70
19090;DHT22;9677;50.656;13.064;2023-03-21T02:44:11;12.10;55.80
19090;DHT22;9677;50.656;13.064;2023-03-21T02:46:50;12.10;55.80
19090;DHT22;9677;50.656;13.064;2023-03-21T02:49:38;12.10;55.70
19090;DHT22;9677;50.656;13.064;2023-03-21T02:52:14;12.10;55.80
19090;DHT22;9677;50.656;13.064;2023-03-21T02:55:09;12.10;55.90
19090;DHT22;9677;50.656;13.064;2023-03-21T02:58:04;12.10;55.90
19090;DHT22;9677;50.656;13.064;2023-03-21T03:00:47;12.10;55.90
19090;DHT22;9677;50.656;13.064;2023-03-21T03:03:32;12.10;55.90
19090;DHT22;9677;50.656;13.064;2023-03-21T03:06:08;12.00;55.80
19090;DHT22;9677;50.656;13.064;2023-03-21T03:08:57;12.10;55.90
19090;DHT22;9677;50.656;13.064;2023-03-21T03:11:38;12.00;55.90
19090;DHT22;9677;50.656;13.064;2023-03-21T03:14:19;12.10;55.90
19090;DHT22;9677;50.656;13.064;2023-03-21T03:17:21;12.00;55.80
19090;DHT22;9677;50.656;13.064;2023-03-21T03:20:09;12.00;55.90
19090;DHT22;9677;50.656;13.064;2023-03-21T03:22:53;12.00;55.90
19090;DHT22;9677;50.656;13.064;2023-03-21T03:25:29;12.00;55.80
19090;DHT22;9677;50.656;13.064;2023-03-21T03:28:15;12.00;55.90
19090;DHT22;9677;50.656;13.064;2023-03-21T03:30:46;12.00;55.90
19090;DHT22;9677;50.656;13.064;2023-03-21T03:33:40;11.90;55.70
19090;DHT22;9677;50.656;13.064;2023-03-21T03:36:15;12.00;55.80
19090;DHT22;9677;50.656;13.064;2023-03-21T03:39:03;11.90;55.70
19090;DHT22;9677;50.656;13.064;2023-03-21T03:41:41;11.90;55.80
19090;DHT22;9677;50.656;13.064;2023-03-21T03:44:38;11.90;55.80
19090;DHT22;9677;50.656;13.064;2023-03-21T03:47:09;11.80;55.80
19090;DHT22;9677;50.656;13.064;2023-03-21T03:50:01;11.80;55.90
19090;DHT22;9677;50.656;13.064;2023-03-21T03:52:38;11.80;56.00
19090;DHT22;9677;50.656;13.064;2023-03-21T03:55:24;11.80;56.00
19090;DHT22;9677;50.656;13.064;2023-03-21T03:58:01;11.80;56.10
19090;DHT22;9677;50.656;13.064;2023-03-21T04:00:38;11.80;56.00
19090;DHT22;9677;50.656;13.064;2023-03-21T04:03:07;11.80;56.10
19090;DHT22;9677;50.656;13.064;2023-03-21T04:05:37;11.80;56.00
19090;DHT22;9677;50.656;13.064;2023-03-21T04:08:05;11.80;56.00
19090;DHT22;9677;50.656;13.064;2023-03-21T04:10:40;11.80;56.10
19090;DHT22;9677;50.656;13.064;2023-03-21T04:13:09;11.80;56.10
19090;DHT22;9677;50.656;13.064;2023-03-21T04:16:05;11.80;56.10
19090;DHT22;9677;50.656;13.064;2023-03-21T04:18:35;11.70;56.10
19090;DHT22;9677;50.656;13.064;2023-03-21T04:21:07;11.70;56.10
19090;DHT22;9677;50.656;13.064;2023-03-21T04:23:39;11.80;56.20
19090;DHT22;9677;50.656;13.064;2023-03-21T04:26:08;11.70;56.20
19090;DHT22;9677;50.656;13.064;2023-03-21T04:28:49;11.70;56.20
19090;DHT22;9677;50.656;13.064;2023-03-21T04:31:39;11.70;56.20
19090;DHT22;9677;50.656;13.064;2023-03-21T04:34:11;11.70;56.30
19090;DHT22;9677;50.656;13.064;2023-03-21T04:36:44;11.70;56.30
19090;DHT22;9677;50.656;13.064;2023-03-21T04:39:14;11.70;56.30
19090;DHT22;9677;50.656;13.064;2023-03-21T04:41:46;11.70;56.30
19090;DHT22;9677;50.656;13.064;2023-03-21T04:44:16;11.80;56.40
19090;DHT22;9677;50.656;13.064;2023-03-21T04:46:46;11.80;56.40
19090;DHT22;9677;50.656;13.064;2023-03-21T04:49:16;11.70;56.40
19090;DHT22;9677;50.656;13.064;2023-03-21T04:51:44;11.70;56.40
19090;DHT22;9677;50.656;13.064;2023-03-21T04:54:17;11.70;56.40
19090;DHT22;9677;50.656;13.064;2023-03-21T04:56:48;11.70;56.40
19090;DHT22;9677;50.656;13.064;2023-03-21T04:59:18;11.70;56.40
19090;DHT22;9677;50.656;13.064;2023-03-21T05:01:48;11.70;56.50
19090;DHT22;9677;50.656;13.064;2023-03-21T05:04:17;11.70;56.50
19090;DHT22;9677;50.656;13.064;2023-03-21T05:06:46;11.70;56.50
19090;DHT22;9677;50.656;13.064;2023-03-21T05:09:15;11.70;56.40
19090;DHT22;9677;50.656;13.064;2023-03-21T05:11:43;11.70;57.00
19090;DHT22;9677;50.656;13.064;2023-03-21T05:14:16;11.70;56.50
19090;DHT22;9677;50.656;13.064;2023-03-21T05:16:48;11.70;56.60
19090;DHT22;9677;50.656;13.064;2023-03-21T05:19:24;11.70;56.60
19090;DHT22;9677;50.656;13.064;2023-03-21T05:22:03;11.70;56.60
19090;DHT22;9677;50.656;13.064;2023-03-21T05:24:32;11.70;56.60
19090;DHT22;9677;50.656;13.064;2023-03-21T05:27:01;11.60;56.60
19090;DHT22;9677;50.656;13.064;2023-03-21T05:29:37;11.70;56.70
19090;DHT22;9677;50.656;13.064;2023-03-21T05:32:08;11.70;56.70
19090;DHT22;9677;50.656;13.064;2023-03-21T05:34:36;11.70;56.80
19090;DHT22;9677;50.656;13.064;2023-03-21T05:37:05;11.60;56.70
19090;DHT22;9677;50.656;13.064;2023-03-21T05:39:46;11.70;56.90
19090;DHT22;9677;50.656;13.064;2023-03-21T05:42:21;12.00;57.10
19090;DHT22;9677;50.656;13.064;2023-03-21T05:44:51;11.60;56.90
19090;DHT22;9677;50.656;13.064;2023-03-21T05:47:25;11.70;57.00
19090;DHT22;9677;50.656;13.064;2023-03-21T05:49:56;11.70;57.10
19090;DHT22;9677;50.656;13.064;2023-03-21T05:52:25;11.70;57.10
19090;DHT22;9677;50.656;13.064;2023-03-21T05:54:56;11.70;57.10
19090;DHT22;9677;50.656;13.064;2023-03-21T05:57:26;11.70;57.10
19090;DHT22;9677;50.656;13.064;2023-03-21T06:00:02;11.70;57.10
19090;DHT22;9677;50.656;13.064;2023-03-21T06:02:42;11.70;57.10
19090;DHT22;9677;50.656;13.064;2023-03-21T06:05:31;11.70;57.10
19090;DHT22;9677;50.656;13.064;2023-03-21T06:08:00;11.70;57.00
19090;DHT22;9677;50.656;13.064;2023-03-21T06:10:28;11.70;57.00
19090;DHT22;9677;50.656;13.064;2023-03-21T06:13:00;11.90;57.70
19090;DHT22;9677;50.656;13.064;2023-03-21T06:15:32;11.70;57.70
19090;DHT22;9677;50.656;13.064;2023-03-21T06:18:12;11.80;57.20
19090;DHT22;9677;50.656;13.064;2023-03-21T06:20:50;11.80;57.20
19090;DHT22;9677;50.656;13.064;2023-03-21T06:23:20;11.80;57.10
19090;DHT22;9677;50.656;13.064;2023-03-21T06:25:49;11.80;57.10
19090;DHT22;9677;50.656;13.064;2023-03-21T06:28:17;11.80;57.20
19090;DHT22;9677;50.656;13.064;2023-03-21T06:30:45;11.80;57.20
19090;DHT22;9677;50.656;13.064;2023-03-21T06:33:20;11.90;57.50
19090;DHT22;9677;50.656;13.064;2023-03-21T06:35:50;11.90;57.80
19090;DHT22;9677;50.656;13.064;2023-03-21T06:38:21;11.90;57.20
19090;DHT22;9677;50.656;13.064;2023-03-21T06:40:50;11.90;57.20
19090;DHT22;9677;50.656;13.064;2023-03-21T06:43:20;11.90;57.20
19090;DHT22;9677;50.656;13.064;2023-03-21T06:45:49;11.90;57.20
19090;DHT22;9677;50.656;13.064;2023-03-21T06:48:21;12.90;57.20
19090;DHT22;9677;50.656;13.064;2023-03-21T06:50:52;12.40;57.10
19090;DHT22;9677;50.656;13.064;2023-03-21T06:53:25;13.00;57.60
19090;DHT22;9677;50.656;13.064;2023-03-21T06:56:14;11.90;57.10
19090;DHT22;9677;50.656;13.064;2023-03-21T06:58:44;12.00;57.10
19090;DHT22;9677;50.656;13.064;2023-03-21T07:01:24;12.50;57.40
19090;DHT22;9677;50.656;13.064;2023-03-21T07:04:03;12.10;57.30
19090;DHT22;9677;50.656;13.064;2023-03-21T07:06:34;12.50;57.30
19090;DHT22;9677;50.656;13.064;2023-03-21T07:09:04;12.10;57.10
19090;DHT22;9677;50.656;13.064;2023-03-21T07:11:35;12.10;57.20
19090;DHT22;9677;50.656;13.064;2023-03-21T07:14:05;13.30;57.70
19090;DHT22;9677;50.656;13.064;2023-03-21T07:16:34;12.00;56.80
19090;DHT22;9677;50.656;13.064;2023-03-21T07:19:04;12.90;57.30
19090;DHT22;9677;50.656;13.064;2023-03-21T07:21:33;12.40;57.20
19090;DHT22;9677;50.656;13.064;2023-03-21T07:24:04;12.20;56.90
19090;DHT22;9677;50.656;13.064;2023-03-21T07:26:34;12.30;57.00
19090;DHT22;9677;50.656;13.064;2023-03-21T07:29:03;12.30;57.10
19090;DHT22;9677;50.656;13.064;2023-03-21T07:31:31;12.30;57.10
19090;DHT22;9677;50.656;13.064;2023-03-21T07:34:01;12.40;57.20
19090;DHT22;9677;50.656;13.064;2023-03-21T07:36:32;12.60;57.20
19090;DHT22;9677;50.656;13.064;2023-03-21T07:39:00;12.40;57.10
19090;DHT22;9677;50.656;13.064;2023-03-21T07:41:29;12.50;57.10
19090;DHT22;9677;50.656;13.064;2023-03-21T07:44:09;12.50;57.20
19090;DHT22;9677;50.656;13.064;2023-03-21T07:46:38;12.60;57.00
19090;DHT22;9677;50.656;13.064;2023-03-21T07:49:07;12.60;57.00
19090;DHT22;9677;50.656;13.064;2023-03-21T07:51:38;13.00;57.10
19090;DHT22;9677;50.656;13.064;2023-03-21T07:54:07;12.60;57.10
19090;DHT22;9677;50.656;13.064;2023-03-21T07:56:36;13.50;57.50
19090;DHT22;9677;50.656;13.064;2023-03-21T07:59:05;12.70;56.90
19090;DHT22;9677;50.656;13.064;2023-03-21T08:01:35;13.00;57.00
19090;DHT22;9677;50.656;13.064;2023-03-21T08:04:04;12.70;56.90
19090;DHT22;9677;50.656;13.064;2023-03-21T08:06:34;12.80;57.00
19090;DHT22;9677;50.656;13.064;2023-03-21T08:09:04;12.80;57.10
19090;DHT22;9677;50.656;13.064;2023-03-21T08:11:33;12.90;57.20
19090;DHT22;9677;50.656;13.064;2023-03-21T08:14:02;12.90;57.20
19090;DHT22;9677;50.656;13.064;2023-03-21T08:16:32;13.00;57.30
19090;DHT22;9677;50.656;13.064;2023-03-21T08:19:00;13.00;57.40
19090;DHT22;9677;50.656;13.064;2023-03-21T08:21:29;13.10;57.40
19090;DHT22;9677;50.656;13.064;2023-03-21T08:27:10;13.20;57.30
19090;DHT22;9677;50.656;13.064;2023-03-21T08:29:39;14.10;57.40
19090;DHT22;9677;50.656;13.064;2023-03-21T08:32:12;13.30;57.10
19090;DHT22;9677;50.656;13.064;2023-03-21T08:34:42;13.40;57.00
19090;DHT22;9677;50.656;13.064;2023-03-21T08:37:12;13.40;57.00
19090;DHT22;9677;50.656;13.064;2023-03-21T08:39:42;13.50;57.20
19090;DHT22;9677;50.656;13.064;2023-03-21T08:42:16;13.60;57.10
19090;DHT22;9677;50.656;13.064;2023-03-21T08:44:48;13.60;57.20
19090;DHT22;9677;50.656;13.064;2023-03-21T08:47:18;13.40;56.90
19090;DHT22;9677;50.656;13.064;2023-03-21T08:49:49;13.30;56.80
19090;DHT22;9677;50.656;13.064;2023-03-21T08:52:20;13.90;56.90
19090;DHT22;9677;50.656;13.064;2023-03-21T08:54:50;15.20;57.60
19090;DHT22;9677;50.656;13.064;2023-03-21T08:57:22;14.10;56.90
19090;DHT22;9677;50.656;13.064;2023-03-21T08:59:52;14.20;56.90
19090;DHT22;9677;50.656;13.064;2023-03-21T09:02:22;14.80;57.10
19090;DHT22;9677;50.656;13.064;2023-03-21T09:04:52;14.20;56.80
19090;DHT22;9677;50.656;13.064;2023-03-21T09:07:25;15.20;57.20
19090;DHT22;9677;50.656;13.064;2023-03-21T09:09:54;15.60;57.20
19090;DHT22;9677;50.656;13.064;2023-03-21T09:12:47;14.50;56.60
19090;DHT22;9677;50.656;13.064;2023-03-21T09:15:17;14.60;56.70
19090;DHT22;9677;50.656;13.064;2023-03-21T09:17:48;14.70;56.70
19090;DHT22;9677;50.656;13.064;2023-03-21T09:20:22;14.80;56.50
19090;DHT22;9677;50.656;13.064;2023-03-21T09:22:59;14.70;56.30
19090;DHT22;9677;50.656;13.064;2023-03-21T09:25:47;14.90;56.40
19090;DHT22;9677;50.656;13.064;2023-03-21T09:28:22;14.60;55.80
19090;DHT22;9677;50.656;13.064;2023-03-21T09:30:54;15.10;55.90
19090;DHT22;9677;50.656;13.064;2023-03-21T09:33:27;15.10;55.90
19090;DHT22;9677;50.656;13.064;2023-03-21T09:35:58;15.20;55.90
19090;DHT22;9677;50.656;13.064;2023-03-21T09:38:38;15.30;55.70
19090;DHT22;9677;50.656;13.064;2023-03-21T09:41:19;15.20;55.70
19090;DHT22;9677;50.656;13.064;2023-03-21T09:44:30;15.30;56.00
19090;DHT22;9677;50.656;13.064;2023-03-21T09:47:14;15.40;56.00
19090;DHT22;9677;50.656;13.064;2023-03-21T09:49:51;15.70;56.10
19090;DHT22;9677;50.656;13.064;2023-03-21T09:52:43;15.20;55.70
19090;DHT22;9677;50.656;13.064;2023-03-21T09:55:17;15.60;55.70
19090;DHT22;9677;50.656;13.064;2023-03-21T09:57:54;15.60;55.90
19090;DHT22;9677;50.656;13.064;2023-03-21T10:00:36;15.70;55.80
19090;DHT22;9677;50.656;13.064;2023-03-21T10:06:12;15.80;55.60
19090;DHT22;9677;50.656;13.064;2023-03-21T10:08:45;15.80;55.40
19090;DHT22;9677;50.656;13.064;2023-03-21T10:11:18;15.90;55.50
19090;DHT22;9677;50.656;13.064;2023-03-21T10:13:56;15.80;55.30
19090;DHT22;9677;50.656;13.064;2023-03-21T10:16:40;15.90;55.10
19090;DHT22;9677;50.656;13.064;2023-03-21T10:19:13;16.30;55.30
19090;DHT22;9677;50.656;13.064;2023-03-21T10:21:47;15.90;55.10
19090;DHT22;9677;50.656;13.064;2023-03-21T10:24:32;16.10;55.10
19090;DHT22;9677;50.656;13.064;2023-03-21T10:27:04;16.20;55.30
19090;DHT22;9677;50.656;13.064;2023-03-21T10:32:30;16.30;55.50
19090;DHT22;9677;50.656;13.064;2023-03-21T10:35:00;16.80;55.50
19090;DHT22;9677;50.656;13.064;2023-03-21T10:37:31;16.60;55.60
19090;DHT22;9677;50.656;13.064;2023-03-21T10:40:03;16.50;55.60
19090;DHT22;9677;50.656;13.064;2023-03-21T10:42:34;16.60;55.60
19090;DHT22;9677;50.656;13.064;2023-03-21T10:45:13;16.80;55.60
19090;DHT22;9677;50.656;13.064;2023-03-21T10:47:48;17.00;55.50
19090;DHT22;9677;50.656;13.064;2023-03-21T10:50:20;17.00;55.40
19090;DHT22;9677;50.656;13.064;2023-03-21T10:52:55;17.50;55.30
19090;DHT22;9677;50.656;13.064;2023-03-21T10:55:29;17.30;55.10
19090;DHT22;9677;50.656;13.064;2023-03-21T10:58:02;17.60;55.10
19090;DHT22;9677;50.656;13.064;2023-03-21T11:00:43;17.50;54.90
19090;DHT22;9677;50.656;13.064;2023-03-21T11:03:21;17.70;54.80
19090;DHT22;9677;50.656;13.064;2023-03-21T11:05:54;17.70;54.50
19090;DHT22;9677;50.656;13.064;2023-03-21T11:08:24;17.90;54.40
19090;DHT22;9677;50.656;13.064;2023-03-21T11:10:59;17.90;54.00
19090;DHT22;9677;50.656;13.064;2023-03-21T11:13:35;18.00;54.00
19090;DHT22;9677;50.656;13.064;2023-03-21T11:16:07;18.30;54.30
19090;DHT22;9677;50.656;13.064;2023-03-21T11:18:44;18.10;54.20
19090;DHT22;9677;50.656;13.064;2023-03-21T11:21:17;18.20;53.80
19090;DHT22;9677;50.656;13.064;2023-03-21T11:23:48;18.20;53.60
19090;DHT22;9677;50.656;13.064;2023-03-21T11:26:21;18.30;53.80
19090;DHT22;9677;50.656;13.064;2023-03-21T11:28:53;18.40;53.70
19090;DHT22;9677;50.656;13.064;2023-03-21T11:31:35;18.50;53.70
19090;DHT22;9677;50.656;13.064;2023-03-21T11:34:07;18.50;53.60
19090;DHT22;9677;50.656;13.064;2023-03-21T11:36:37;18.80;53.40
19090;DHT22;9677;50.656;13.064;2023-03-21T11:39:20;18.70;53.20
19090;DHT22;9677;50.656;13.064;2023-03-21T11:41:55;18.70;52.70
19090;DHT22;9677;50.656;13.064;2023-03-21T11:44:28;18.80;53.00
19090;DHT22;9677;50.656;13.064;2023-03-21T11:46:59;18.80;52.90
19090;DHT22;9677;50.656;13.064;2023-03-21T11:49:29;18.80;53.00
19090;DHT22;9677;50.656;13.064;2023-03-21T11:52:08;18.90;52.80
19090;DHT22;9677;50.656;13.064;2023-03-21T11:54:55;18.90;52.50
19090;DHT22;9677;50.656;13.064;2023-03-21T11:57:35;19.00;52.40
19090;DHT22;9677;50.656;13.064;2023-03-21T12:00:16;19.00;52.60
19090;DHT22;9677;50.656;13.064;2023-03-21T12:03:07;19.10;52.90
19090;DHT22;9677;50.656;13.064;2023-03-21T12:06:24;19.20;52.80
19090;DHT22;9677;50.656;13.064;2023-03-21T12:09:08;19.20;52.50
19090;DHT22;9677;50.656;13.064;2023-03-21T12:12:13;19.40;52.20
19090;DHT22;9677;50.656;13.064;2023-03-21T12:14:58;19.50;52.30
19090;DHT22;9677;50.656;13.064;2023-03-21T12:17:37;19.50;52.10
19090;DHT22;9677;50.656;13.064;2023-03-21T12:20:33;19.40;52.20
19090;DHT22;9677;50.656;13.064;2023-03-21T12:23:25;19.50;51.80
19090;DHT22;9677;50.656;13.064;2023-03-21T12:26:19;19.50;51.80
19090;DHT22;9677;50.656;13.064;2023-03-21T12:29:17;19.70;51.90
19090;DHT22;9677;50.656;13.064;2023-03-21T12:32:05;19.60;51.80
19090;DHT22;9677;50.656;13.064;2023-03-21T12:35:01;19.80;52.10
19090;DHT22;9677;50.656;13.064;2023-03-21T12:37:42;19.70;51.60
19090;DHT22;9677;50.656;13.064;2023-03-21T12:40:34;19.80;51.50
19090;DHT22;9677;50.656;13.064;2023-03-21T12:43:22;19.80;51.30
19090;DHT22;9677;50.656;13.064;2023-03-21T12:45:57;19.90;50.90
19090;DHT22;9677;50.656;13.064;2023-03-21T12:48:36;19.80;51.30
19090;DHT22;9677;50.656;13.064;2023-03-21T12:51:10;20.00;51.10
19090;DHT22;9677;50.656;13.064;2023-03-21T12:53:50;20.00;51.00
19090;DHT22;9677;50.656;13.064;2023-03-21T12:56:28;19.90;50.80
19090;DHT22;9677;50.656;13.064;2023-03-21T12:59:03;19.90;50.80
19090;DHT22;9677;50.656;13.064;2023-03-21T13:01:37;19.90;50.60
19090;DHT22;9677;50.656;13.064;2023-03-21T13:04:20;19.90;50.60
19090;DHT22;9677;50.656;13.064;2023-03-21T13:07:08;19.80;50.60
19090;DHT22;9677;50.656;13.064;2023-03-21T13:09:39;20.10;50.90
19090;DHT22;9677;50.656;13.064;2023-03-21T13:12:20;19.80;50.60
19090;DHT22;9677;50.656;13.064;2023-03-21T13:15:01;19.80;50.20
19090;DHT22;9677;50.656;13.064;2023-03-21T13:17:55;19.90;50.30
19090;DHT22;9677;50.656;13.064;2023-03-21T13:20:31;20.00;50.50
19090;DHT22;9677;50.656;13.064;2023-03-21T13:23:07;19.90;50.60
19090;DHT22;9677;50.656;13.064;2023-03-21T13:25:41;19.80;50.70
19090;DHT22;9677;50.656;13.064;2023-03-21T13:28:19;19.90;50.60
19090;DHT22;9677;50.656;13.064;2023-03-21T13:30:49;20.00;50.70
19090;DHT22;9677;50.656;13.064;2023-03-21T13:33:22;19.70;50.50
19090;DHT22;9677;50.656;13.064;2023-03-21T13:35:59;19.90;50.50
19090;DHT22;9677;50.656;13.064;2023-03-21T13:38:32;19.90;50.60
19090;DHT22;9677;50.656;13.064;2023-03-21T13:41:07;20.00;50.60
19090;DHT22;9677;50.656;13.064;2023-03-21T13:43:45;20.00;50.60
19090;DHT22;9677;50.656;13.064;2023-03-21T13:46:34;20.10;51.20
19090;DHT22;9677;50.656;13.064;2023-03-21T13:49:26;20.10;50.50
19090;DHT22;9677;50.656;13.064;2023-03-21T13:51:58;20.10;50.70
19090;DHT22;9677;50.656;13.064;2023-03-21T13:54:45;20.30;50.70
19090;DHT22;9677;50.656;13.064;2023-03-21T13:57:28;20.10;50.10
19090;DHT22;9677;50.656;13.064;2023-03-21T14:00:30;20.40;50.20
19090;DHT22;9677;50.656;13.064;2023-03-21T14:03:07;20.20;49.80
19090;DHT22;9677;50.656;13.064;2023-03-21T14:05:38;20.30;50.00
19090;DHT22;9677;50.656;13.064;2023-03-21T14:08:09;20.30;50.30
19090;DHT22;9677;50.656;13.064;2023-03-21T14:10:56;20.40;50.10
19090;DHT22;9677;50.656;13.064;2023-03-21T14:13:26;20.40;49.90
19090;DHT22;9677;50.656;13.064;2023-03-21T14:15:59;20.30;50.00
19090;DHT22;9677;50.656;13.064;2023-03-21T14:18:40;20.30;49.90
19090;DHT22;9677;50.656;13.064;2023-03-21T14:21:22;20.40;49.50
19090;DHT22;9677;50.656;13.064;2023-03-21T14:23:56;20.40;49.70
19090;DHT22;9677;50.656;13.064;2023-03-21T14:26:28;20.30;50.30
19090;DHT22;9677;50.656;13.064;2023-03-21T14:28:58;20.40;49.40
19090;DHT22;9677;50.656;13.064;2023-03-21T14:31:32;20.40;49.40
19090;DHT22;9677;50.656;13.064;2023-03-21T14:34:02;20.40;49.10
19090;DHT22;9677;50.656;13.064;2023-03-21T14:36:32;20.30;48.90
19090;DHT22;9677;50.656;13.064;2023-03-21T14:39:14;20.30;48.90
19090;DHT22;9677;50.656;13.064;2023-03-21T14:41:46;20.30;49.00
19090;DHT22;9677;50.656;13.064;2023-03-21T14:44:19;20.40;49.10
19090;DHT22;9677;50.656;13.064;2023-03-21T14:46:59;20.40;49.20
19090;DHT22;9677;50.656;13.064;2023-03-21T14:49:32;20.30;49.10
19090;DHT22;9677;50.656;13.064;2023-03-21T14:52:03;20.30;49.20
19090;DHT22;9677;50.656;13.064;2023-03-21T14:54:33;20.30;49.30
19090;DHT22;9677;50.656;13.064;2023-03-21T14:57:08;20.30;49.00
19090;DHT22;9677;50.656;13.064;2023-03-21T14:59:39;20.30;48.80
19090;DHT22;9677;50.656;13.064;2023-03-21T15:02:16;20.20;48.90
19090;DHT22;9677;50.656;13.064;2023-03-21T15:04:48;20.20;48.70
19090;DHT22;9677;50.656;13.064;2023-03-21T15:07:26;20.20;48.90
19090;DHT22;9677;50.656;13.064;2023-03-21T15:09:57;20.20;48.60
19090;DHT22;9677;50.656;13.064;2023-03-21T15:12:27;20.30;48.80
19090;DHT22;9677;50.656;13.064;2023-03-21T15:14:56;20.20;48.90
19090;DHT22;9677;50.656;13.064;2023-03-21T15:17:27;20.20;48.90
19090;DHT22;9677;50.656;13.064;2023-03-21T15:19:56;20.20;48.80
19090;DHT22;9677;50.656;13.064;2023-03-21T15:22:30;20.20;48.80
19090;DHT22;9677;50.656;13.064;2023-03-21T15:25:02;20.10;48.80
19090;DHT22;9677;50.656;13.064;2023-03-21T15:27:36;20.10;48.90
19090;DHT22;9677;50.656;13.064;2023-03-21T15:30:18;20.10;48.80
19090;DHT22;9677;50.656;13.064;2023-03-21T15:32:49;20.10;48.60
19090;DHT22;9677;50.656;13.064;2023-03-21T15:35:23;20.20;48.80
19090;DHT22;9677;50.656;13.064;2023-03-21T15:37:55;20.10;48.70
19090;DHT22;9677;50.656;13.064;2023-03-21T15:40:26;20.10;48.70
19090;DHT22;9677;50.656;13.064;2023-03-21T15:43:06;20.10;48.70
19090;DHT22;9677;50.656;13.064;2023-03-21T15:45:46;20.10;48.50
19090;DHT22;9677;50.656;13.064;2023-03-21T15:48:20;20.10;48.60
19090;DHT22;9677;50.656;13.064;2023-03-21T15:50:55;20.10;48.70
19090;DHT22;9677;50.656;13.064;2023-03-21T15:53:30;20.00;48.60
19090;DHT22;9677;50.656;13.064;2023-03-21T15:56:01;20.20;48.60
19090;DHT22;9677;50.656;13.064;2023-03-21T15:58:33;20.00;48.60
19090;DHT22;9677;50.656;13.064;2023-03-21T16:01:07;20.00;48.70
19090;DHT22;9677;50.656;13.064;2023-03-21T16:03:45;19.90;48.60
19090;DHT22;9677;50.656;13.064;2023-03-21T16:06:17;19.90;48.50
19090;DHT22;9677;50.656;13.064;2023-03-21T16:08:48;19.90;48.70
19090;DHT22;9677;50.656;13.064;2023-03-21T16:11:24;19.90;48.60
19090;DHT22;9677;50.656;13.064;2023-03-21T16:13:55;19.80;48.40
19090;DHT22;9677;50.656;13.064;2023-03-21T16:16:25;19.80;48.50
19090;DHT22;9677;50.656;13.064;2023-03-21T16:18:57;19.80;48.70
19090;DHT22;9677;50.656;13.064;2023-03-21T16:21:29;19.70;48.60
19090;DHT22;9677;50.656;13.064;2023-03-21T16:24:00;19.70;48.60
19090;DHT22;9677;50.656;13.064;2023-03-21T16:26:30;19.80;48.60
19090;DHT22;9677;50.656;13.064;2023-03-21T16:28:59;19.70;48.70
19090;DHT22;9677;50.656;13.064;2023-03-21T16:31:30;19.70;48.60
19090;DHT22;9677;50.656;13.064;2023-03-21T16:34:03;19.60;48.60
19090;DHT22;9677;50.656;13.064;2023-03-21T16:36:35;19.60;48.60